createdAt,value
2023-04-02T00:04:20.315Z,92.23
2023-04-02T00:09:20.245Z,91.20
2023-04-02T00:14:20.185Z,91.55
2023-04-02T00:19:20.095Z,92.73
2023-04-02T00:24:20.040Z,91.97
2023-04-02T00:29:20.009Z,92.57
2023-04-02T00:34:19.929Z,92.77
2023-04-02T00:39:19.899Z,92.73
2023-04-02T00:44:19.861Z,92.67
2023-04-02T00:49:20.791Z,92.21
2023-04-02T00:54:19.831Z,92.67
2023-04-02T00:59:20.718Z,92.61
2023-04-02T01:04:21.629Z,92.34
2023-04-02T01:09:20.593Z,92.97
2023-04-02T01:14:19.485Z,93.48
2023-04-02T01:19:19.570Z,92.16
2023-04-02T01:24:19.443Z,93.66
2023-04-02T01:29:19.351Z,93.11
2023-04-02T01:34:19.304Z,92.59
2023-04-02T01:41:37.627Z,92.38
2023-04-02T01:46:37.658Z,92.22
2023-04-02T01:51:37.477Z,91.85
2023-04-02T01:56:37.477Z,92.53
2023-04-02T02:01:37.417Z,92.29
2023-04-02T02:06:37.360Z,91.50
2023-04-02T02:11:37.285Z,91.71
2023-04-02T02:16:37.211Z,91.85
2023-04-02T02:21:37.152Z,91.40
2023-04-02T02:26:37.204Z,92.47
2023-04-02T02:31:37.107Z,90.88
2023-04-02T02:36:36.982Z,90.99
2023-04-02T02:41:37.057Z,92.10
2023-04-02T02:46:36.919Z,92.10
2023-04-02T02:51:36.899Z,91.64
2023-04-02T02:56:36.807Z,90.47
2023-04-02T03:01:36.883Z,92.41
2023-04-02T03:06:36.855Z,91.48
2023-04-02T03:11:36.726Z,92.06
2023-04-02T03:16:36.624Z,90.86
2023-04-02T03:21:36.613Z,90.76
2023-04-02T03:26:36.540Z,90.51
2023-04-02T03:31:36.474Z,90.70
2023-04-02T03:36:37.382Z,91.11
2023-04-02T03:41:36.337Z,90.70
2023-04-02T03:46:36.322Z,90.12
2023-04-02T03:51:36.245Z,90.08
2023-04-02T03:56:36.345Z,90.04
2023-04-02T04:01:36.169Z,90.95
2023-04-02T04:06:36.070Z,90.59
2023-04-02T04:11:35.984Z,90.12
2023-04-02T04:16:36.063Z,90.25
2023-04-02T04:21:35.883Z,90.74
2023-04-02T04:26:35.795Z,89.40
2023-04-02T04:31:35.777Z,90.68
2023-04-02T04:36:35.816Z,91.88
2023-04-02T04:41:35.712Z,90.64
2023-04-02T04:46:35.653Z,91.71
2023-04-02T04:51:35.627Z,91.50
2023-04-02T04:56:35.569Z,90.78
2023-04-02T05:01:35.602Z,90.26
2023-04-02T05:06:35.495Z,90.72
2023-04-02T05:11:35.397Z,90.83
2023-04-02T05:16:35.358Z,91.24
2023-04-02T05:21:35.318Z,90.87
2023-04-02T05:26:35.278Z,90.77
2023-04-02T05:31:35.201Z,91.80
2023-04-02T05:36:35.044Z,90.77
2023-04-02T05:41:35.162Z,90.70
2023-04-02T05:46:35.023Z,91.49
2023-04-02T05:51:34.911Z,90.31
2023-04-02T05:56:34.872Z,89.48
2023-04-02T06:01:34.898Z,90.25
2023-04-02T06:06:34.716Z,90.00
2023-04-02T06:11:34.730Z,89.87
2023-04-02T06:16:34.644Z,90.04
2023-04-02T06:21:34.668Z,88.96
2023-04-02T06:26:34.505Z,89.69
2023-04-02T06:31:34.453Z,89.52
2023-04-02T06:36:34.395Z,89.11
2023-04-02T06:41:34.368Z,89.11
2023-04-02T06:46:34.390Z,88.53
2023-04-02T06:51:34.412Z,89.15
2023-04-02T06:56:34.332Z,89.46
2023-04-02T07:01:34.181Z,89.77
2023-04-02T07:06:34.096Z,88.74
2023-04-02T07:11:34.670Z,89.52
2023-04-02T07:16:34.257Z,90.04
2023-04-02T07:21:34.105Z,88.78
2023-04-02T07:26:33.908Z,90.29
2023-04-02T07:31:33.947Z,89.61
2023-04-02T07:36:34.123Z,88.16
2023-04-02T07:41:35.456Z,88.46
2023-04-02T07:46:42.492Z,87.04
2023-04-02T07:51:33.507Z,87.46
2023-04-02T07:56:33.444Z,86.52
2023-04-02T08:01:33.370Z,87.33
2023-04-02T08:06:33.384Z,86.57
2023-04-02T08:11:33.356Z,85.60
2023-04-02T08:16:33.301Z,86.15
2023-04-02T08:21:33.159Z,85.60
2023-04-02T08:26:33.100Z,84.87
2023-04-02T08:31:33.050Z,85.49
2023-04-02T08:36:33.006Z,84.08
2023-04-02T08:41:32.968Z,83.11
2023-04-02T08:46:32.971Z,83.07
2023-04-02T08:51:32.865Z,83.28
2023-04-02T08:56:32.769Z,82.15
2023-04-02T09:01:32.774Z,82.42
2023-04-02T09:06:32.680Z,81.46
2023-04-02T09:11:32.643Z,80.39
2023-04-02T09:16:32.628Z,79.46
2023-04-02T09:21:32.615Z,79.52
2023-04-02T09:26:32.516Z,80.11
2023-04-02T09:31:32.459Z,79.80
2023-04-02T09:36:32.441Z,79.73
2023-04-02T09:41:32.371Z,79.04
2023-04-02T09:46:32.323Z,78.01
2023-04-02T09:51:32.196Z,78.83
2023-04-02T09:56:32.175Z,78.59
2023-04-02T10:01:32.195Z,77.22
2023-04-02T10:06:32.075Z,78.97
2023-04-02T10:11:43.742Z,78.56
2023-04-02T10:16:33.349Z,78.94
2023-04-02T10:21:31.887Z,78.14
2023-04-02T10:26:35.299Z,77.32
2023-04-02T10:31:32.797Z,77.87
2023-04-02T10:36:31.744Z,77.04
2023-04-02T10:41:31.672Z,76.77
2023-04-02T10:46:31.637Z,77.87
2023-04-02T10:51:32.974Z,76.80
2023-04-02T10:56:44.188Z,76.42
2023-04-02T11:01:32.598Z,76.53
2023-04-02T11:06:32.359Z,75.91
2023-04-02T11:11:32.194Z,74.84
2023-04-02T11:16:31.345Z,74.05
2023-04-02T11:21:31.235Z,74.12
2023-04-02T11:26:31.190Z,74.29
2023-04-02T11:31:31.186Z,73.23
2023-04-02T11:36:31.145Z,73.81
2023-04-02T11:41:31.054Z,70.79
2023-04-02T11:46:31.035Z,71.34
2023-04-02T11:51:30.945Z,72.96
2023-04-02T11:56:30.858Z,72.30
2023-04-02T12:01:31.815Z,70.48
2023-04-02T12:06:30.857Z,70.07
2023-04-02T12:11:31.692Z,70.45
2023-04-02T12:16:30.782Z,71.96
2023-04-02T12:21:30.599Z,71.86
2023-04-02T12:26:30.522Z,73.23
2023-04-02T12:31:30.489Z,71.17
2023-04-02T12:36:30.375Z,72.33
2023-04-02T12:41:30.527Z,70.34
2023-04-02T12:46:30.495Z,71.10
2023-04-02T12:51:30.240Z,71.00
2023-04-02T12:56:30.155Z,71.27
2023-04-02T13:01:30.148Z,69.73
2023-04-02T13:06:30.075Z,70.62
2023-04-02T13:11:31.069Z,70.69
2023-04-02T13:16:30.063Z,69.15
2023-04-02T13:21:29.868Z,68.87
2023-04-02T13:26:29.831Z,68.67
2023-04-02T13:31:29.849Z,67.78
2023-04-02T13:36:29.797Z,67.09
2023-04-02T13:41:29.707Z,67.26
2023-04-02T13:46:29.623Z,67.57
2023-04-02T13:51:29.650Z,66.58
2023-04-02T13:56:29.520Z,66.82
2023-04-02T14:01:29.556Z,65.59
2023-04-02T14:06:29.462Z,64.32
2023-04-02T14:11:29.344Z,64.29
2023-04-02T14:16:29.400Z,64.60
2023-04-02T14:21:29.281Z,61.95
2023-04-02T14:26:29.146Z,61.67
2023-04-02T14:31:29.122Z,62.70
2023-04-02T14:36:29.104Z,64.31
2023-04-02T14:41:29.037Z,61.95
2023-04-02T14:46:28.949Z,61.67
2023-04-02T14:51:28.844Z,61.87
2023-04-02T14:56:28.864Z,62.24
2023-04-02T15:01:28.789Z,61.70
2023-04-02T15:06:28.747Z,60.67
2023-04-02T15:11:28.647Z,61.05
2023-04-02T15:16:28.650Z,61.93
2023-04-02T15:21:28.553Z,61.24
2023-04-02T15:26:28.561Z,62.24
2023-04-02T15:31:28.479Z,61.42
2023-04-02T15:36:28.483Z,61.93
2023-04-02T15:41:28.454Z,60.51
2023-04-02T15:46:28.495Z,59.69
2023-04-02T15:51:28.209Z,59.92
2023-04-02T15:56:28.166Z,60.21
2023-04-02T16:01:28.136Z,60.08
2023-04-02T16:06:28.134Z,60.21
2023-04-02T16:11:28.020Z,61.44
2023-04-02T16:16:27.977Z,61.65
2023-04-02T16:21:27.888Z,60.93
2023-04-02T16:26:27.855Z,60.67
2023-04-02T16:31:27.842Z,61.98
2023-04-02T16:36:27.796Z,61.21
2023-04-02T16:41:27.671Z,61.24
2023-04-02T16:46:39.005Z,60.60
2023-04-02T16:51:28.548Z,60.98
2023-04-02T16:56:27.513Z,62.34
2023-04-02T17:01:27.470Z,61.55
2023-04-02T17:06:27.427Z,61.17
2023-04-02T17:11:27.346Z,62.46
2023-04-02T17:16:27.309Z,62.77
2023-04-02T17:21:27.219Z,62.15
2023-04-02T17:26:27.225Z,62.70
2023-04-02T17:31:27.135Z,62.82
2023-04-02T17:36:27.041Z,63.93
2023-04-02T17:41:27.030Z,63.13
2023-04-02T17:46:27.056Z,63.27
2023-04-02T17:51:26.944Z,63.17
2023-04-02T17:56:26.855Z,63.68
2023-04-02T18:01:26.796Z,64.32
2023-04-02T18:06:26.724Z,65.28
2023-04-02T18:11:26.671Z,64.25
2023-04-02T18:16:26.649Z,66.01
2023-04-02T18:21:35.498Z,63.81
2023-04-02T18:26:26.607Z,65.52
2023-04-02T18:31:26.680Z,66.04
2023-04-02T18:36:26.460Z,66.58
2023-04-02T18:41:26.446Z,66.48
2023-04-02T18:46:26.390Z,66.89
2023-04-02T18:51:26.337Z,67.75
2023-04-02T18:56:26.250Z,68.37
2023-04-02T19:01:26.323Z,69.95
2023-04-02T19:06:26.150Z,71.81
2023-04-02T19:11:26.085Z,70.09
2023-04-02T19:16:26.215Z,71.12
2023-04-02T19:21:25.951Z,71.26
2023-04-02T19:26:25.926Z,71.05
2023-04-02T19:31:25.936Z,72.22
2023-04-02T19:36:25.834Z,73.19
2023-04-02T19:41:25.753Z,76.09
2023-04-02T19:46:25.697Z,76.84
2023-04-02T19:51:25.609Z,76.78
2023-04-02T19:56:25.586Z,77.29
2023-04-02T20:01:25.606Z,77.40
2023-04-02T20:06:25.449Z,77.23
2023-04-02T20:11:25.406Z,77.02
2023-04-02T20:16:25.358Z,76.92
2023-04-02T20:21:25.355Z,77.58
2023-04-02T20:26:25.266Z,78.20
2023-04-02T20:31:25.228Z,78.23
2023-04-02T20:36:25.216Z,78.89
2023-04-02T20:41:25.117Z,79.20
2023-04-02T20:46:25.103Z,79.44
2023-04-02T20:51:25.082Z,80.07
2023-04-02T20:56:24.934Z,80.38
2023-04-02T21:01:24.971Z,80.42
2023-04-02T21:06:24.808Z,80.32
2023-04-02T21:11:24.797Z,80.98
2023-04-02T21:16:24.715Z,80.98
2023-04-02T21:21:24.659Z,81.70
2023-04-02T21:26:24.593Z,81.39
2023-04-02T21:31:24.593Z,81.32
2023-04-02T21:36:24.496Z,81.95
2023-04-02T21:41:24.498Z,82.15
2023-04-02T21:46:24.416Z,82.89
2023-04-02T21:51:24.408Z,82.68
2023-04-02T21:56:24.332Z,82.61
2023-04-02T22:01:27.679Z,82.92
2023-04-02T22:06:24.186Z,83.86
2023-04-02T22:11:24.136Z,83.34
2023-04-02T22:16:24.155Z,83.37
2023-04-02T22:21:24.025Z,83.27
2023-04-02T22:26:23.932Z,83.37
2023-04-02T22:31:23.930Z,83.83
2023-04-02T22:36:23.846Z,83.83
2023-04-02T22:41:23.822Z,84.56
2023-04-02T22:46:23.778Z,84.45
2023-04-02T22:51:23.663Z,84.14
2023-04-02T22:56:23.594Z,84.56
2023-04-02T23:01:23.604Z,84.50
2023-04-02T23:06:23.530Z,84.81
2023-04-02T23:11:23.499Z,84.50
2023-04-02T23:16:23.515Z,84.70
2023-04-02T23:21:23.381Z,84.70
2023-04-02T23:26:23.363Z,84.81
2023-04-02T23:31:23.302Z,85.05
2023-04-02T23:36:23.221Z,84.53
2023-04-02T23:41:23.161Z,84.84
2023-04-02T23:46:23.223Z,85.61
2023-04-02T23:51:23.029Z,85.16
2023-04-02T23:56:22.993Z,84.95
